Time,TemperatureF,DewpointF,PressureIn,WindDirection,WindDirectionDegrees,WindSpeedMPH,WindSpeedGustMPH,Humidity,HourlyPrecipIn,Conditions,Clouds,dailyrainin,SoftwareType,DateUTC
2013-01-29 00:00:00,31.3,25.0,30.02,SE,135,2.0,3.0,77,0.00,,,0.00,meteohub,2013-01-29 05:00:00,
2013-01-29 00:02:00,31.3,25.0,30.02,SE,135,2.0,3.0,77,0.00,,,0.00,meteohub,2013-01-29 05:02:00,
2013-01-29 00:03:00,31.3,25.0,30.02,SE,135,2.0,3.0,77,0.00,,,0.00,meteohub,2013-01-29 05:03:00,
2013-01-29 00:05:00,31.3,25.0,30.02,SE,135,2.0,3.0,77,0.00,,,0.00,meteohub,2013-01-29 05:05:00,
2013-01-29 00:10:00,31.3,25.0,30.01,SE,135,3.0,3.0,77,0.00,,,0.00,meteohub,2013-01-29 05:10:00,
2013-01-29 00:15:00,31.3,25.0,30.01,South,180,3.0,3.0,77,0.00,,,0.00,meteohub,2013-01-29 05:15:00,
2013-01-29 00:20:00,31.3,25.0,30.01,SE,135,3.0,3.0,77,0.00,,,0.00,meteohub,2013-01-29 05:20:00,
2013-01-29 00:25:00,31.3,25.0,30.01,SE,135,3.0,4.0,77,0.00,,,0.00,meteohub,2013-01-29 05:25:00,
2013-01-29 00:30:00,31.3,25.0,30.01,SE,135,2.0,4.0,77,0.00,,,0.00,meteohub,2013-01-29 05:30:00,
2013-01-29 00:32:00,31.3,25.0,30.01,SE,135,2.0,4.0,77,0.00,,,0.00,meteohub,2013-01-29 05:32:00,
2013-01-29 00:37:00,31.3,25.0,30.01,SE,135,2.0,4.0,77,0.00,,,0.00,meteohub,2013-01-29 05:37:00,
2013-01-29 00:42:00,31.3,25.0,30.01,SE,135,4.0,4.0,77,0.00,,,0.00,meteohub,2013-01-29 05:42:00,
2013-01-29 00:47:00,31.3,25.0,30.01,SE,135,2.0,6.0,77,0.00,,,0.00,meteohub,2013-01-29 05:47:00,
2013-01-29 00:52:00,31.3,25.0,30.01,East,90,2.0,6.0,77,0.00,,,0.00,meteohub,2013-01-29 05:52:00,
2013-01-29 00:57:00,31.1,24.8,30.00,SE,135,3.0,4.0,77,0.00,,,0.00,meteohub,2013-01-29 05:57:00,
2013-01-29 01:02:00,31.1,24.8,30.00,SE,135,3.0,4.0,77,0.00,,,0.00,meteohub,2013-01-29 06:02:00,
2013-01-29 01:07:00,31.1,24.8,29.99,SE,135,3.0,4.0,77,0.00,,,0.00,meteohub,2013-01-29 06:07:00,
2013-01-29 01:12:00,30.9,24.6,29.99,SE,135,3.0,4.0,77,0.00,,,0.00,meteohub,2013-01-29 06:12:00,
2013-01-29 01:17:00,30.9,24.6,29.99,SE,135,4.0,4.0,77,0.00,,,0.00,meteohub,2013-01-29 06:17:00,
2013-01-29 01:22:00,30.7,24.4,29.99,SE,135,3.0,4.0,77,0.00,,,0.00,meteohub,2013-01-29 06:22:00,
2013-01-29 01:27:00,30.7,24.4,29.99,SE,135,2.0,4.0,77,0.00,,,0.00,meteohub,2013-01-29 06:27:00,
2013-01-29 01:32:00,30.7,24.4,29.98,South,180,4.0,4.0,77,0.00,,,0.00,meteohub,2013-01-29 06:32:00,
2013-01-29 01:37:00,30.7,24.4,29.98,South,180,4.0,4.0,77,0.00,,,0.00,meteohub,2013-01-29 06:37:00,
2013-01-29 01:42:00,30.7,24.4,29.97,South,180,2.0,4.0,77,0.00,,,0.00,meteohub,2013-01-29 06:42:00,
2013-01-29 01:47:00,30.7,24.4,29.97,South,180,3.0,4.0,77,0.00,,,0.00,meteohub,2013-01-29 06:47:00,
2013-01-29 01:52:00,30.7,24.4,29.96,SW,225,3.0,4.0,77,0.00,,,0.00,meteohub,2013-01-29 06:52:00,
2013-01-29 01:57:00,30.7,24.4,29.96,South,180,3.0,4.0,77,0.00,,,0.00,meteohub,2013-01-29 06:57:00,
2013-01-29 02:02:00,30.6,24.3,29.96,SE,135,4.0,7.0,77,0.00,,,0.00,meteohub,2013-01-29 07:02:00,
2013-01-29 02:07:00,30.6,24.3,29.95,SE,135,5.0,7.0,77,0.00,,,0.00,meteohub,2013-01-29 07:07:00,
2013-01-29 02:12:00,30.6,24.3,29.95,SE,135,3.0,7.0,77,0.00,,,0.00,meteohub,2013-01-29 07:12:00,
2013-01-29 02:17:00,30.6,24.3,29.95,SE,135,3.0,5.0,77,0.00,,,0.00,meteohub,2013-01-29 07:17:00,
2013-01-29 02:22:00,30.6,24.3,29.95,SE,135,3.0,5.0,77,0.00,,,0.00,meteohub,2013-01-29 07:22:00,
2013-01-29 02:27:00,30.4,24.1,29.95,SE,135,3.0,4.0,77,0.00,,,0.00,meteohub,2013-01-29 07:27:00,
2013-01-29 02:32:00,30.4,24.1,29.95,SE,135,2.0,4.0,77,0.00,,,0.00,meteohub,2013-01-29 07:32:00,
2013-01-29 02:37:00,30.2,23.9,29.94,SE,135,2.0,4.0,77,0.00,,,0.00,meteohub,2013-01-29 07:37:00,
2013-01-29 02:42:00,30.2,23.9,29.94,SE,135,4.0,4.0,77,0.00,,,0.00,meteohub,2013-01-29 07:42:00,
2013-01-29 02:47:00,30.0,24.1,29.94,SE,135,2.0,4.0,78,0.00,,,0.00,meteohub,2013-01-29 07:47:00,
2013-01-29 02:52:00,30.0,24.1,29.94,SE,135,4.0,4.0,78,0.00,,,0.00,meteohub,2013-01-29 07:52:00,
2013-01-29 02:57:00,30.0,24.1,29.94,SE,135,4.0,4.0,78,0.00,,,0.00,meteohub,2013-01-29 07:57:00,
2013-01-29 03:02:00,30.0,24.1,29.93,SE,135,6.0,6.0,78,0.00,,,0.00,meteohub,2013-01-29 08:02:00,
2013-01-29 03:07:00,30.0,24.1,29.92,SE,135,6.0,6.0,78,0.00,,,0.00,meteohub,2013-01-29 08:07:00,
2013-01-29 03:12:00,30.2,24.3,29.91,South,180,5.0,6.0,78,0.00,,,0.00,meteohub,2013-01-29 08:12:00,
2013-01-29 03:17:00,30.2,24.3,29.90,SE,135,4.0,6.0,78,0.00,,,0.00,meteohub,2013-01-29 08:17:00,
2013-01-29 03:22:00,30.4,24.3,29.89,South,180,6.0,6.0,78,0.00,,,0.00,meteohub,2013-01-29 08:22:00,
2013-01-29 03:27:00,30.4,24.6,29.91,SE,135,5.0,6.0,79,0.00,,,0.00,meteohub,2013-01-29 08:27:00,
2013-01-29 03:32:00,30.6,24.8,29.90,South,180,3.0,6.0,79,0.00,,,0.00,meteohub,2013-01-29 08:32:00,
2013-01-29 03:37:00,30.6,24.8,29.89,South,180,4.0,7.0,79,0.00,,,0.00,meteohub,2013-01-29 08:37:00,
2013-01-29 03:42:00,30.6,24.8,29.90,SW,225,4.0,7.0,79,0.00,,,0.00,meteohub,2013-01-29 08:42:00,
2013-01-29 03:47:00,30.7,25.0,29.90,SE,135,4.0,7.0,79,0.00,,,0.00,meteohub,2013-01-29 08:47:00,
2013-01-29 03:52:00,30.7,25.0,29.90,SE,135,4.0,8.0,79,0.00,,,0.00,meteohub,2013-01-29 08:52:00,
2013-01-29 03:57:00,30.9,25.2,29.88,East,90,5.0,8.0,79,0.00,,,0.00,meteohub,2013-01-29 08:57:00,
2013-01-29 04:02:00,30.9,25.2,29.88,SE,135,3.0,8.0,79,0.00,,,0.00,meteohub,2013-01-29 09:02:00,
2013-01-29 04:07:00,30.9,25.2,29.87,SE,135,5.0,6.0,79,0.00,,,0.00,meteohub,2013-01-29 09:07:00,
2013-01-29 04:12:00,30.9,25.2,29.88,SE,135,5.0,6.0,79,0.00,,,0.00,meteohub,2013-01-29 09:12:00,
2013-01-29 04:17:00,31.1,25.3,29.88,SE,135,4.0,6.0,79,0.00,,,0.00,meteohub,2013-01-29 09:17:00,
2013-01-29 04:22:00,31.3,25.5,29.88,SE,135,2.0,6.0,79,0.00,,,0.00,meteohub,2013-01-29 09:22:00,
2013-01-29 04:27:00,31.5,25.7,29.87,SE,135,5.0,6.0,79,0.00,,,0.00,meteohub,2013-01-29 09:27:00,
2013-01-29 04:32:00,31.5,25.7,29.87,SE,135,3.0,6.0,79,0.00,,,0.00,meteohub,2013-01-29 09:32:00,
2013-01-29 04:37:00,31.6,25.9,29.87,SE,135,4.0,6.0,79,0.00,,,0.00,meteohub,2013-01-29 09:37:00,
2013-01-29 04:42:00,31.6,25.9,29.87,SE,135,3.0,5.0,79,0.00,,,0.00,meteohub,2013-01-29 09:42:00,
2013-01-29 04:47:00,31.8,26.1,29.87,SE,135,4.0,5.0,79,0.00,,,0.00,meteohub,2013-01-29 09:47:00,
2013-01-29 04:52:00,31.8,26.1,29.86,North,0,4.0,4.0,79,0.00,,,0.00,meteohub,2013-01-29 09:52:00,
2013-01-29 04:57:00,32.0,25.9,29.86,SW,225,3.0,4.0,78,0.00,,,0.00,meteohub,2013-01-29 09:57:00,
2013-01-29 05:02:00,32.0,25.9,29.85,SE,135,4.0,5.0,78,0.00,,,0.00,meteohub,2013-01-29 10:02:00,
2013-01-29 05:07:00,32.0,25.9,29.84,SE,135,4.0,5.0,78,0.00,,,0.00,meteohub,2013-01-29 10:07:00,
2013-01-29 05:12:00,32.0,26.2,29.85,West,270,3.0,5.0,79,0.00,,,0.00,meteohub,2013-01-29 10:12:00,
2013-01-29 05:17:00,32.2,26.4,29.85,SE,135,4.0,4.0,79,0.00,,,0.00,meteohub,2013-01-29 10:17:00,
2013-01-29 05:22:00,32.2,26.4,29.85,SE,135,3.0,4.0,79,0.00,,,0.00,meteohub,2013-01-29 10:22:00,
2013-01-29 05:27:00,32.2,26.4,29.84,SSE,158,3.0,4.0,79,0.00,,,0.00,meteohub,2013-01-29 10:27:00,
2013-01-29 05:32:00,32.2,26.4,29.84,SE,135,4.0,4.0,79,0.00,,,0.00,meteohub,2013-01-29 10:32:00,
2013-01-29 05:37:00,32.4,26.6,29.84,NE,45,3.0,4.0,79,0.00,,,0.00,meteohub,2013-01-29 10:37:00,
2013-01-29 05:42:00,32.4,26.6,29.82,NE,45,2.0,4.0,79,0.00,,,0.00,meteohub,2013-01-29 10:42:00,
2013-01-29 05:47:00,32.4,26.6,29.82,East,90,2.0,4.0,79,0.00,,,0.00,meteohub,2013-01-29 10:47:00,
2013-01-29 05:52:00,32.4,26.6,29.82,East,90,2.0,4.0,79,0.00,,,0.00,meteohub,2013-01-29 10:52:00,
2013-01-29 05:57:00,32.4,26.6,29.81,South,180,3.0,4.0,79,0.00,,,0.00,meteohub,2013-01-29 10:57:00,
2013-01-29 06:02:00,32.5,26.8,29.81,South,180,3.0,4.0,79,0.00,,,0.00,meteohub,2013-01-29 11:02:00,
2013-01-29 06:07:00,32.5,26.8,29.80,South,180,3.0,4.0,79,0.00,,,0.00,meteohub,2013-01-29 11:07:00,
2013-01-29 06:13:00,32.5,26.8,29.80,SE,135,2.0,4.0,79,0.00,,,0.00,meteohub,2013-01-29 11:13:00,
2013-01-29 06:18:00,32.5,26.8,29.80,South,180,3.0,4.0,79,0.00,,,0.00,meteohub,2013-01-29 11:18:00,
2013-01-29 06:23:00,32.5,26.8,29.79,South,180,3.0,4.0,79,0.00,,,0.00,meteohub,2013-01-29 11:23:00,
2013-01-29 06:28:00,32.7,27.0,29.79,South,180,4.0,4.0,79,0.00,,,0.00,meteohub,2013-01-29 11:28:00,
2013-01-29 06:33:00,32.7,27.0,29.78,South,180,3.0,5.0,79,0.00,,,0.00,meteohub,2013-01-29 11:33:00,
2013-01-29 06:38:00,32.5,26.8,29.78,South,180,3.0,5.0,79,0.00,,,0.00,meteohub,2013-01-29 11:38:00,
2013-01-29 06:43:00,32.5,27.1,29.78,SW,225,3.0,5.0,80,0.00,,,0.00,meteohub,2013-01-29 11:43:00,
2013-01-29 06:48:00,32.5,27.1,29.77,SE,135,4.0,4.0,80,0.00,,,0.00,meteohub,2013-01-29 11:48:00,
2013-01-29 06:53:00,32.5,27.1,29.77,South,180,0.0,4.0,80,0.00,,,0.00,meteohub,2013-01-29 11:53:00,
2013-01-29 06:58:00,32.7,27.3,29.77,South,180,3.0,4.0,80,0.00,,,0.00,meteohub,2013-01-29 11:58:00,
2013-01-29 07:03:00,32.7,27.3,29.76,South,180,3.0,4.0,80,0.00,,,0.00,meteohub,2013-01-29 12:03:00,
2013-01-29 07:08:00,32.7,27.3,29.76,SE,135,2.0,4.0,80,0.00,,,0.00,meteohub,2013-01-29 12:08:00,
2013-01-29 07:13:00,32.7,27.3,29.76,SE,135,3.0,4.0,80,0.00,,,0.00,meteohub,2013-01-29 12:13:00,
2013-01-29 07:18:00,32.7,27.3,29.75,SE,135,3.0,3.0,80,0.00,,,0.00,meteohub,2013-01-29 12:18:00,
2013-01-29 07:23:00,32.7,27.3,29.76,SE,135,3.0,3.0,80,0.00,,,0.00,meteohub,2013-01-29 12:23:00,
2013-01-29 07:28:00,32.7,27.3,29.75,SE,135,4.0,4.0,80,0.00,,,0.00,meteohub,2013-01-29 12:28:00,
2013-01-29 07:33:00,32.7,27.3,29.75,SE,135,2.0,4.0,80,0.00,,,0.00,meteohub,2013-01-29 12:33:00,
2013-01-29 07:38:00,32.7,27.3,29.75,SE,135,2.0,4.0,80,0.00,,,0.00,meteohub,2013-01-29 12:38:00,
2013-01-29 07:43:00,32.9,27.5,29.75,SE,135,2.0,4.0,80,0.00,,,0.00,meteohub,2013-01-29 12:43:00,
2013-01-29 07:48:00,32.9,27.5,29.76,SE,135,2.0,3.0,80,0.00,,,0.00,meteohub,2013-01-29 12:48:00,
2013-01-29 07:53:00,32.9,27.5,29.75,SE,135,2.0,3.0,80,0.00,,,0.00,meteohub,2013-01-29 12:53:00,
2013-01-29 07:58:00,33.1,27.5,29.75,SE,135,2.0,3.0,80,0.00,,,0.00,meteohub,2013-01-29 12:58:00,
2013-01-29 08:03:00,33.3,27.7,29.76,SE,135,4.0,4.0,80,0.00,,,0.00,meteohub,2013-01-29 13:03:00,
2013-01-29 08:08:00,33.3,28.0,29.75,SE,135,4.0,4.0,81,0.00,,,0.00,meteohub,2013-01-29 13:08:00,
2013-01-29 08:13:00,33.3,28.0,29.74,SE,135,3.0,4.0,81,0.00,,,0.00,meteohub,2013-01-29 13:13:00,
2013-01-29 08:18:00,33.4,28.2,29.74,SE,135,3.0,4.0,81,0.00,,,0.00,meteohub,2013-01-29 13:18:00,
2013-01-29 08:23:00,33.4,28.2,29.74,SE,135,3.0,4.0,81,0.00,,,0.00,meteohub,2013-01-29 13:23:00,
2013-01-29 08:28:00,33.4,28.2,29.73,SE,135,2.0,4.0,81,0.00,,,0.00,meteohub,2013-01-29 13:28:00,
2013-01-29 08:33:00,33.4,28.2,29.73,SE,135,2.0,4.0,81,0.00,,,0.00,meteohub,2013-01-29 13:33:00,
2013-01-29 08:38:00,33.4,28.2,29.73,SE,135,2.0,3.0,81,0.00,,,0.00,meteohub,2013-01-29 13:38:00,
2013-01-29 08:43:00,33.4,28.2,29.73,SE,135,3.0,3.0,81,0.00,,,0.00,meteohub,2013-01-29 13:43:00,
2013-01-29 08:48:00,33.6,28.4,29.73,SE,135,3.0,3.0,81,0.00,,,0.00,meteohub,2013-01-29 13:48:00,
2013-01-29 08:52:00,33.6,28.4,29.71,SE,135,3.0,4.0,81,0.00,,,0.00,meteohub,2013-01-29 13:52:00,
2013-01-29 08:54:00,33.6,28.4,29.72,SE,135,2.0,4.0,81,0.00,,,0.00,meteohub,2013-01-29 13:54:00,
2013-01-29 08:59:00,33.8,28.6,29.71,SE,135,2.0,4.0,81,0.00,,,0.00,meteohub,2013-01-29 13:59:00,
2013-01-29 09:04:00,33.8,28.6,29.71,SE,135,3.0,3.0,81,0.00,,,0.00,meteohub,2013-01-29 14:04:00,
2013-01-29 09:09:00,33.8,28.6,29.72,SE,135,2.0,3.0,81,0.00,,,0.00,meteohub,2013-01-29 14:09:00,
2013-01-29 09:14:00,33.8,28.6,29.72,SE,135,2.0,3.0,81,0.00,,,0.00,meteohub,2013-01-29 14:14:00,
2013-01-29 09:19:00,33.8,28.6,29.72,SE,135,2.0,3.0,81,0.00,,,0.00,meteohub,2013-01-29 14:19:00,
2013-01-29 09:24:00,33.8,28.6,29.72,SE,135,2.0,3.0,81,0.00,,,0.00,meteohub,2013-01-29 14:24:00,
2013-01-29 09:29:00,33.8,28.6,29.72,SE,135,2.0,2.0,81,0.00,,,0.00,meteohub,2013-01-29 14:29:00,
2013-01-29 09:34:00,33.8,28.6,29.71,SE,135,3.0,3.0,81,0.00,,,0.00,meteohub,2013-01-29 14:34:00,
2013-01-29 09:39:00,34.0,28.8,29.70,SE,135,2.0,3.0,81,0.00,,,0.00,meteohub,2013-01-29 14:39:00,
2013-01-29 09:44:00,34.0,28.8,29.70,SE,135,1.0,3.0,81,0.00,,,0.00,meteohub,2013-01-29 14:44:00,
2013-01-29 09:49:00,34.2,28.9,29.71,SE,135,1.0,3.0,81,0.00,,,0.00,meteohub,2013-01-29 14:49:00,
2013-01-29 09:54:00,34.2,28.9,29.71,SE,135,0.0,3.0,81,0.00,,,0.00,meteohub,2013-01-29 14:54:00,
2013-01-29 09:59:00,34.3,29.1,29.70,SE,135,0.0,2.0,81,0.00,,,0.00,meteohub,2013-01-29 14:59:00,
2013-01-29 10:04:00,34.5,29.7,29.70,SE,135,0.0,2.0,82,0.01,,,0.01,meteohub,2013-01-29 15:04:00,
2013-01-29 10:09:00,34.5,29.7,29.70,SE,135,2.0,2.0,82,0.01,,,0.01,meteohub,2013-01-29 15:09:00,
2013-01-29 10:14:00,34.5,29.7,29.70,SE,135,0.0,2.0,82,0.01,,,0.01,meteohub,2013-01-29 15:14:00,
2013-01-29 10:19:00,34.7,29.8,29.69,SE,135,2.0,2.0,82,0.01,,,0.01,meteohub,2013-01-29 15:19:00,
2013-01-29 10:24:00,34.7,29.8,29.69,SE,135,0.0,2.0,82,0.01,,,0.01,meteohub,2013-01-29 15:24:00,
2013-01-29 10:29:00,34.9,30.0,29.70,SE,135,2.0,2.0,82,0.01,,,0.01,meteohub,2013-01-29 15:29:00,
2013-01-29 10:35:00,35.1,30.2,29.70,SE,135,2.0,2.0,82,0.01,,,0.01,meteohub,2013-01-29 15:35:00,
2013-01-29 10:40:00,35.2,30.4,29.69,SE,135,2.0,2.0,82,0.01,,,0.01,meteohub,2013-01-29 15:40:00,
2013-01-29 10:45:00,35.2,30.4,29.68,SE,135,2.0,2.0,82,0.02,,,0.02,meteohub,2013-01-29 15:45:00,
2013-01-29 10:46:00,35.2,30.4,29.68,SE,135,2.0,2.0,82,0.02,,,0.02,meteohub,2013-01-29 15:46:00,
2013-01-29 10:52:00,35.4,30.6,29.68,SE,135,2.0,2.0,82,0.02,,,0.02,meteohub,2013-01-29 15:52:00,
2013-01-29 10:57:00,35.4,30.6,29.68,SE,135,2.0,2.0,82,0.04,,,0.04,meteohub,2013-01-29 15:57:00,
2013-01-29 11:02:00,35.6,30.4,29.68,SE,135,1.0,2.0,81,0.04,,,0.05,meteohub,2013-01-29 16:02:00,
2013-01-29 11:07:00,35.6,30.4,29.68,SE,135,1.0,2.0,81,0.04,,,0.05,meteohub,2013-01-29 16:07:00,
2013-01-29 11:12:00,35.8,30.6,29.67,SE,135,2.0,2.0,81,0.05,,,0.06,meteohub,2013-01-29 16:12:00,
2013-01-29 11:17:00,36.0,30.7,29.67,SE,135,2.0,2.0,81,0.05,,,0.06,meteohub,2013-01-29 16:17:00,
2013-01-29 11:22:00,35.8,30.6,29.66,SE,135,2.0,2.0,81,0.06,,,0.07,meteohub,2013-01-29 16:22:00,
2013-01-29 11:27:00,36.0,30.7,29.67,SE,135,2.0,2.0,81,0.06,,,0.07,meteohub,2013-01-29 16:27:00,
2013-01-29 11:32:00,36.1,30.9,29.68,SE,135,0.0,2.0,81,0.06,,,0.07,meteohub,2013-01-29 16:32:00,
2013-01-29 11:37:00,36.3,31.1,29.66,SE,135,2.0,2.0,81,0.07,,,0.08,meteohub,2013-01-29 16:37:00,
2013-01-29 11:42:00,36.3,31.1,29.66,SE,135,1.0,2.0,81,0.06,,,0.08,meteohub,2013-01-29 16:42:00,
2013-01-29 11:48:00,36.3,31.1,29.66,SE,135,0.0,2.0,81,0.07,,,0.09,meteohub,2013-01-29 16:48:00,
2013-01-29 11:53:00,36.3,31.1,29.65,SE,135,2.0,2.0,81,0.07,,,0.09,meteohub,2013-01-29 16:53:00,
2013-01-29 11:58:00,36.5,31.3,29.65,SE,135,0.0,2.0,81,0.05,,,0.09,meteohub,2013-01-29 16:58:00,
2013-01-29 12:03:00,36.9,31.6,29.63,SE,135,2.0,2.0,81,0.06,,,0.11,meteohub,2013-01-29 17:03:00,
2013-01-29 12:08:00,37.0,31.8,29.63,SE,135,2.0,2.0,81,0.06,,,0.11,meteohub,2013-01-29 17:08:00,
2013-01-29 12:13:00,37.0,31.8,29.62,SE,135,1.0,2.0,81,0.05,,,0.11,meteohub,2013-01-29 17:13:00,
2013-01-29 12:18:00,37.2,32.0,29.62,SE,135,2.0,2.0,81,0.05,,,0.12,meteohub,2013-01-29 17:18:00,
2013-01-29 12:23:00,37.2,32.0,29.61,SE,135,0.0,2.0,81,0.05,,,0.12,meteohub,2013-01-29 17:23:00,
2013-01-29 12:28:00,37.8,33.6,29.62,SE,135,2.0,2.0,85,0.05,,,0.12,meteohub,2013-01-29 17:28:00,
2013-01-29 12:33:00,38.1,34.0,29.62,SE,135,2.0,2.0,85,0.05,,,0.13,meteohub,2013-01-29 17:33:00,
2013-01-29 12:38:00,38.7,34.5,29.62,SE,135,2.0,2.0,85,0.05,,,0.13,meteohub,2013-01-29 17:38:00,
2013-01-29 12:42:00,38.7,34.5,29.62,SE,135,2.0,2.0,85,0.06,,,0.14,meteohub,2013-01-29 17:42:00,
2013-01-29 12:47:00,38.7,34.5,29.62,SE,135,0.0,2.0,85,0.05,,,0.14,meteohub,2013-01-29 17:47:00,
2013-01-29 12:52:00,38.8,34.7,29.61,SE,135,2.0,2.0,85,0.05,,,0.14,meteohub,2013-01-29 17:52:00,
2013-01-29 12:57:00,38.8,34.7,29.61,SE,135,2.0,2.0,85,0.06,,,0.15,meteohub,2013-01-29 17:57:00,
2013-01-29 13:02:00,38.8,34.7,29.60,SE,135,2.0,2.0,85,0.05,,,0.15,meteohub,2013-01-29 18:02:00,
2013-01-29 13:07:00,38.8,34.7,29.61,SE,135,2.0,2.0,85,0.05,,,0.15,meteohub,2013-01-29 18:07:00,
2013-01-29 13:12:00,38.3,34.2,29.61,SE,135,0.0,2.0,85,0.04,,,0.15,meteohub,2013-01-29 18:12:00,
2013-01-29 13:17:00,38.3,34.2,29.60,SE,135,0.0,2.0,85,0.05,,,0.17,meteohub,2013-01-29 18:17:00,
2013-01-29 13:22:00,38.1,34.0,29.60,SE,135,0.0,2.0,85,0.05,,,0.17,meteohub,2013-01-29 18:22:00,
2013-01-29 13:27:00,38.3,34.2,29.60,SE,135,1.0,0.0,85,0.05,,,0.17,meteohub,2013-01-29 18:27:00,
2013-01-29 13:32:00,38.5,34.3,29.60,SE,135,3.0,3.0,85,0.04,,,0.17,meteohub,2013-01-29 18:32:00,
2013-01-29 13:37:00,38.8,34.7,29.60,SE,135,3.0,3.0,85,0.05,,,0.18,meteohub,2013-01-29 18:37:00,
2013-01-29 13:42:00,39.4,34.9,29.60,SE,135,2.0,3.0,84,0.04,,,0.18,meteohub,2013-01-29 18:42:00,
2013-01-29 13:45:00,39.7,35.2,29.59,SE,135,2.0,3.0,84,0.05,,,0.19,meteohub,2013-01-29 18:45:00,
2013-01-29 13:52:00,40.1,35.6,29.59,SE,135,2.0,3.0,84,0.05,,,0.19,meteohub,2013-01-29 18:52:00,
2013-01-29 13:57:00,40.3,35.8,29.59,SE,135,3.0,3.0,84,0.04,,,0.19,meteohub,2013-01-29 18:57:00,
2013-01-29 14:02:00,40.5,36.0,29.59,SE,135,2.0,3.0,84,0.05,,,0.20,meteohub,2013-01-29 19:02:00,
2013-01-29 14:07:00,40.8,36.7,29.59,SE,135,2.0,3.0,85,0.05,,,0.20,meteohub,2013-01-29 19:07:00,
2013-01-29 14:12:00,41.0,36.5,29.58,SE,135,0.0,3.0,84,0.04,,,0.20,meteohub,2013-01-29 19:12:00,
2013-01-29 14:17:00,41.0,36.5,29.58,SE,135,2.0,4.0,84,0.04,,,0.20,meteohub,2013-01-29 19:17:00,
2013-01-29 14:22:00,41.2,36.7,29.58,SE,135,2.0,4.0,84,0.05,,,0.21,meteohub,2013-01-29 19:22:00,
2013-01-29 14:27:00,41.0,36.5,29.58,SE,135,2.0,3.0,84,0.05,,,0.21,meteohub,2013-01-29 19:27:00,
2013-01-29 14:32:00,41.0,36.5,29.58,SE,135,2.0,2.0,84,0.04,,,0.21,meteohub,2013-01-29 19:32:00,
2013-01-29 14:37:00,41.0,36.5,29.58,SE,135,2.0,3.0,84,0.04,,,0.21,meteohub,2013-01-29 19:37:00,
2013-01-29 14:42:00,41.0,36.5,29.58,SE,135,2.0,3.0,84,0.05,,,0.22,meteohub,2013-01-29 19:42:00,
2013-01-29 14:47:00,41.0,36.5,29.57,SE,135,2.0,3.0,84,0.04,,,0.22,meteohub,2013-01-29 19:47:00,
2013-01-29 14:52:00,41.0,36.5,29.58,SE,135,0.0,4.0,84,0.04,,,0.22,meteohub,2013-01-29 19:52:00,
2013-01-29 14:57:00,40.8,36.7,29.57,SE,135,0.0,4.0,85,0.04,,,0.22,meteohub,2013-01-29 19:57:00,
2013-01-29 14:58:00,40.8,36.7,29.58,SE,135,0.0,4.0,85,0.04,,,0.22,meteohub,2013-01-29 19:58:00,
2013-01-29 15:03:00,40.8,36.7,29.57,South,180,3.0,4.0,85,0.02,,,0.22,meteohub,2013-01-29 20:03:00,
2013-01-29 15:08:00,40.8,36.7,29.57,SSE,158,1.0,3.0,85,0.04,,,0.24,meteohub,2013-01-29 20:08:00,
2013-01-29 15:09:00,40.8,36.7,29.57,South,180,2.0,3.0,85,0.04,,,0.24,meteohub,2013-01-29 20:09:00,
2013-01-29 15:17:00,40.6,36.5,29.57,South,180,0.0,3.0,85,0.02,,,0.24,meteohub,2013-01-29 20:17:00,
2013-01-29 15:24:00,40.8,36.7,29.57,North,0,0.0,3.0,85,0.02,,,0.24,meteohub,2013-01-29 20:24:00,
2013-01-29 15:29:00,41.2,36.7,29.57,West,270,4.0,4.0,84,0.02,,,0.24,meteohub,2013-01-29 20:29:00,
2013-01-29 15:34:00,41.5,37.0,29.58,NW,315,8.0,8.0,84,0.02,,,0.24,meteohub,2013-01-29 20:34:00,
2013-01-29 15:39:00,41.7,37.2,29.58,NW,315,6.0,8.0,84,0.02,,,0.24,meteohub,2013-01-29 20:39:00,
2013-01-29 15:44:00,41.7,37.2,29.58,North,0,2.0,8.0,84,0.01,,,0.24,meteohub,2013-01-29 20:44:00,
2013-01-29 15:49:00,41.5,37.0,29.58,North,0,8.0,8.0,84,0.02,,,0.25,meteohub,2013-01-29 20:49:00,
2013-01-29 15:52:00,41.7,37.6,29.58,NW,315,5.0,8.0,85,0.02,,,0.25,meteohub,2013-01-29 20:52:00,
2013-01-29 15:57:00,41.5,37.4,29.58,NW,315,4.0,8.0,85,0.02,,,0.25,meteohub,2013-01-29 20:57:00,
2013-01-29 16:02:00,41.5,37.4,29.58,NW,315,3.0,8.0,85,0.01,,,0.25,meteohub,2013-01-29 21:02:00,
2013-01-29 16:07:00,41.9,37.8,29.59,North,0,5.0,5.0,85,0.01,,,0.25,meteohub,2013-01-29 21:07:00,
2013-01-29 16:12:00,41.9,37.8,29.58,North,0,7.0,7.0,85,0.01,,,0.25,meteohub,2013-01-29 21:12:00,
2013-01-29 16:17:00,42.3,38.1,29.58,North,0,5.0,7.0,85,0.01,,,0.25,meteohub,2013-01-29 21:17:00,
2013-01-29 16:18:00,42.3,38.1,29.58,North,0,8.0,8.0,85,0.01,,,0.25,meteohub,2013-01-29 21:18:00,
2013-01-29 16:27:00,42.4,38.3,29.58,North,0,9.0,10.0,85,0.01,,,0.25,meteohub,2013-01-29 21:27:00,
2013-01-29 16:32:00,42.8,38.7,29.58,NNW,338,12.0,12.0,85,0.01,,,0.25,meteohub,2013-01-29 21:32:00,
2013-01-29 16:37:00,43.2,39.0,29.58,WNW,293,13.0,13.0,85,0.01,,,0.25,meteohub,2013-01-29 21:37:00,
2013-01-29 16:42:00,43.0,38.8,29.58,NW,315,8.0,15.0,85,0.00,,,0.25,meteohub,2013-01-29 21:42:00,
2013-01-29 16:46:00,42.8,38.7,29.58,North,0,10.0,16.0,85,0.00,,,0.25,meteohub,2013-01-29 21:46:00,
2013-01-29 16:52:00,42.6,38.7,29.59,NNW,338,11.0,16.0,86,0.00,,,0.25,meteohub,2013-01-29 21:52:00,
2013-01-29 17:02:00,42.8,38.7,29.58,North,0,8.0,13.0,85,0.00,,,0.25,meteohub,2013-01-29 22:02:00,
2013-01-29 17:07:00,42.8,38.7,29.59,North,0,8.0,13.0,85,0.00,,,0.25,meteohub,2013-01-29 22:07:00,
2013-01-29 17:12:00,42.3,38.3,29.59,North,0,9.0,13.0,86,0.00,,,0.25,meteohub,2013-01-29 22:12:00,
2013-01-29 17:17:00,42.3,38.3,29.59,North,0,10.0,11.0,86,0.00,,,0.25,meteohub,2013-01-29 22:17:00,
2013-01-29 17:22:00,42.1,38.1,29.59,North,0,8.0,11.0,86,0.00,,,0.25,meteohub,2013-01-29 22:22:00,
2013-01-29 17:27:00,41.9,37.9,29.59,North,0,11.0,11.0,86,0.00,,,0.25,meteohub,2013-01-29 22:27:00,
2013-01-29 17:32:00,41.9,37.9,29.60,North,0,10.0,11.0,86,0.00,,,0.25,meteohub,2013-01-29 22:32:00,
2013-01-29 17:37:00,41.7,37.8,29.60,North,0,11.0,12.0,86,0.00,,,0.25,meteohub,2013-01-29 22:37:00,
2013-01-29 17:42:00,41.9,37.9,29.59,North,0,11.0,15.0,86,0.00,,,0.25,meteohub,2013-01-29 22:42:00,
2013-01-29 17:47:00,41.9,37.9,29.60,North,0,11.0,15.0,86,0.00,,,0.25,meteohub,2013-01-29 22:47:00,
2013-01-29 17:52:00,41.5,37.6,29.59,North,0,9.0,15.0,86,0.00,,,0.25,meteohub,2013-01-29 22:52:00,
2013-01-29 17:57:00,41.2,37.4,29.59,North,0,9.0,15.0,86,0.00,,,0.25,meteohub,2013-01-29 22:57:00,
2013-01-29 18:02:00,41.2,37.4,29.60,North,0,9.0,13.0,86,0.00,,,0.25,meteohub,2013-01-29 23:02:00,
2013-01-29 18:07:00,40.8,37.2,29.60,North,0,10.0,11.0,87,0.00,,,0.25,meteohub,2013-01-29 23:07:00,
2013-01-29 18:12:00,40.6,37.0,29.60,North,0,13.0,13.0,87,0.00,,,0.25,meteohub,2013-01-29 23:12:00,
2013-01-29 18:17:00,40.5,36.9,29.60,North,0,8.0,13.0,87,0.00,,,0.25,meteohub,2013-01-29 23:17:00,
2013-01-29 18:22:00,39.9,36.3,29.60,North,0,12.0,13.0,87,0.00,,,0.25,meteohub,2013-01-29 23:22:00,
2013-01-29 18:28:00,39.6,36.0,29.60,North,0,11.0,13.0,87,0.00,,,0.25,meteohub,2013-01-29 23:28:00,
2013-01-29 18:33:00,39.4,35.8,29.60,NNE,23,12.0,13.0,87,0.00,,,0.25,meteohub,2013-01-29 23:33:00,
2013-01-29 18:38:00,39.0,35.4,29.60,NE,45,9.0,13.0,87,0.00,,,0.25,meteohub,2013-01-29 23:38:00,
2013-01-29 18:43:00,38.8,35.2,29.60,NE,45,14.0,15.0,87,0.00,,,0.25,meteohub,2013-01-29 23:43:00,
2013-01-29 18:48:00,38.8,35.2,29.61,NE,45,11.0,15.0,87,0.00,,,0.25,meteohub,2013-01-29 23:48:00,
2013-01-29 18:53:00,38.7,35.1,29.61,NE,45,11.0,15.0,87,0.00,,,0.25,meteohub,2013-01-29 23:53:00,
2013-01-29 18:58:00,38.8,35.2,29.62,North,0,7.0,15.0,87,0.00,,,0.25,meteohub,2013-01-29 23:58:00,
2013-01-29 19:03:00,38.7,35.1,29.62,NE,45,8.0,11.0,87,0.00,,,0.25,meteohub,2013-01-30 00:03:00,
2013-01-29 19:08:00,38.8,35.2,29.62,NE,45,8.0,11.0,87,0.00,,,0.00,meteohub,2013-01-30 00:08:00,
2013-01-29 19:13:00,38.7,35.1,29.62,North,0,8.0,9.0,87,0.00,,,0.00,meteohub,2013-01-30 00:13:00,
2013-01-29 19:18:00,38.5,34.9,29.62,NE,45,11.0,11.0,87,0.00,,,0.00,meteohub,2013-01-30 00:18:00,
2013-01-29 19:23:00,38.3,34.7,29.62,NE,45,13.0,13.0,87,0.00,,,0.00,meteohub,2013-01-30 00:23:00,
2013-01-29 19:28:00,37.9,34.3,29.62,NE,45,11.0,13.0,87,0.00,,,0.00,meteohub,2013-01-30 00:28:00,
2013-01-29 19:33:00,37.9,34.3,29.62,NE,45,13.0,13.0,87,0.00,,,0.00,meteohub,2013-01-30 00:33:00,
2013-01-29 19:38:00,37.9,34.3,29.61,NE,45,13.0,13.0,87,0.00,,,0.00,meteohub,2013-01-30 00:38:00,
2013-01-29 19:43:00,37.8,34.2,29.62,NE,45,11.0,15.0,87,0.00,,,0.00,meteohub,2013-01-30 00:43:00,
2013-01-29 19:48:00,37.8,34.2,29.61,NE,45,11.0,15.0,87,0.00,,,0.00,meteohub,2013-01-30 00:48:00,
2013-01-29 19:53:00,37.8,34.2,29.61,NE,45,12.0,15.0,87,0.00,,,0.00,meteohub,2013-01-30 00:53:00,
2013-01-29 19:58:00,37.9,34.3,29.61,NE,45,11.0,13.0,87,0.00,,,0.00,meteohub,2013-01-30 00:58:00,
2013-01-29 20:03:00,37.8,34.2,29.61,East,90,15.0,15.0,87,0.00,,,0.00,meteohub,2013-01-30 01:03:00,
2013-01-29 20:08:00,37.8,34.2,29.61,ENE,68,9.0,15.0,87,0.00,,,0.00,meteohub,2013-01-30 01:08:00,
2013-01-29 20:13:00,37.8,34.2,29.61,NE,45,10.0,15.0,87,0.00,,,0.00,meteohub,2013-01-30 01:13:00,
2013-01-29 20:18:00,37.8,34.0,29.61,East,90,8.0,15.0,86,0.00,,,0.00,meteohub,2013-01-30 01:18:00,
2013-01-29 20:23:00,37.6,33.8,29.60,East,90,11.0,15.0,86,0.00,,,0.00,meteohub,2013-01-30 01:23:00,
2013-01-29 20:28:00,37.4,33.6,29.60,East,90,10.0,15.0,86,0.01,,,0.01,meteohub,2013-01-30 01:28:00,
2013-01-29 20:33:00,37.4,33.6,29.60,NE,45,11.0,15.0,86,0.01,,,0.01,meteohub,2013-01-30 01:33:00,
2013-01-29 20:38:00,37.2,32.2,29.60,NE,45,13.0,13.0,82,0.01,,,0.01,meteohub,2013-01-30 01:38:00,
2013-01-29 20:43:00,37.0,31.8,29.61,East,90,10.0,14.0,81,0.01,,,0.01,meteohub,2013-01-30 01:43:00,
2013-01-29 20:48:00,36.9,31.6,29.60,East,90,11.0,14.0,81,0.01,,,0.01,meteohub,2013-01-30 01:48:00,
2013-01-29 20:53:00,36.7,31.5,29.60,NE,45,10.0,14.0,81,0.02,,,0.02,meteohub,2013-01-30 01:53:00,
2013-01-29 20:59:00,36.7,31.5,29.60,East,90,11.0,13.0,81,0.02,,,0.02,meteohub,2013-01-30 01:59:00,
2013-01-29 21:04:00,36.5,31.3,29.61,East,90,8.0,13.0,81,0.04,,,0.04,meteohub,2013-01-30 02:04:00,
2013-01-29 21:09:00,36.5,31.3,29.60,East,90,10.0,12.0,81,0.04,,,0.04,meteohub,2013-01-30 02:09:00,
2013-01-29 21:14:00,36.5,31.3,29.60,East,90,11.0,11.0,81,0.04,,,0.04,meteohub,2013-01-30 02:14:00,
2013-01-29 21:19:00,36.3,31.1,29.61,East,90,8.0,14.0,81,0.04,,,0.04,meteohub,2013-01-30 02:19:00,
2013-01-29 21:24:00,36.3,31.1,29.61,East,90,9.0,14.0,81,0.04,,,0.04,meteohub,2013-01-30 02:24:00,
2013-01-29 21:29:00,36.1,30.9,29.61,NE,45,11.0,14.0,81,0.04,,,0.05,meteohub,2013-01-30 02:29:00,
2013-01-29 21:34:00,36.1,30.9,29.61,East,90,10.0,14.0,81,0.05,,,0.06,meteohub,2013-01-30 02:34:00,
2013-01-29 21:39:00,36.1,30.9,29.61,East,90,10.0,14.0,81,0.05,,,0.06,meteohub,2013-01-30 02:39:00,
2013-01-29 21:44:00,36.0,30.7,29.61,East,90,10.0,12.0,81,0.05,,,0.06,meteohub,2013-01-30 02:44:00,
2013-01-29 21:49:00,36.0,30.7,29.60,NE,45,15.0,15.0,81,0.07,,,0.08,meteohub,2013-01-30 02:49:00,
2013-01-29 21:54:00,35.8,30.6,29.59,NE,45,15.0,17.0,81,0.06,,,0.08,meteohub,2013-01-30 02:54:00,
2013-01-29 21:59:00,35.8,30.6,29.59,East,90,11.0,17.0,81,0.06,,,0.08,meteohub,2013-01-30 02:59:00,
2013-01-29 22:04:00,35.6,30.4,29.58,East,90,17.0,17.0,81,0.06,,,0.09,meteohub,2013-01-30 03:04:00,
2013-01-29 22:09:00,35.6,30.4,29.58,East,90,11.0,18.0,81,0.07,,,0.11,meteohub,2013-01-30 03:09:00,
2013-01-29 22:14:00,35.4,30.6,29.58,ENE,68,13.0,18.0,82,0.07,,,0.11,meteohub,2013-01-30 03:14:00,
2013-01-29 22:19:00,35.2,30.4,29.58,East,90,13.0,18.0,82,0.07,,,0.11,meteohub,2013-01-30 03:19:00,
2013-01-29 22:24:00,35.2,30.4,29.58,NE,45,11.0,17.0,82,0.07,,,0.11,meteohub,2013-01-30 03:24:00,
2013-01-29 22:29:00,35.2,30.4,29.57,East,90,11.0,17.0,82,0.06,,,0.11,meteohub,2013-01-30 03:29:00,
2013-01-29 22:34:00,35.2,30.4,29.57,East,90,12.0,13.0,82,0.06,,,0.12,meteohub,2013-01-30 03:34:00,
2013-01-29 22:39:00,35.2,30.4,29.56,East,90,11.0,15.0,82,0.07,,,0.13,meteohub,2013-01-30 03:39:00,
2013-01-29 22:44:00,35.2,30.4,29.57,East,90,13.0,15.0,82,0.06,,,0.13,meteohub,2013-01-30 03:44:00,
2013-01-29 22:49:00,35.1,30.2,29.57,East,90,11.0,15.0,82,0.05,,,0.13,meteohub,2013-01-30 03:49:00,
2013-01-29 22:54:00,35.1,30.2,29.57,East,90,12.0,13.0,82,0.05,,,0.13,meteohub,2013-01-30 03:54:00,
2013-01-29 22:59:00,35.1,30.2,29.57,East,90,12.0,13.0,82,0.04,,,0.13,meteohub,2013-01-30 03:59:00,
2013-01-29 23:04:00,35.1,30.2,29.56,NE,45,15.0,15.0,82,0.04,,,0.13,meteohub,2013-01-30 04:04:00,
2013-01-29 23:09:00,35.1,30.2,29.56,East,90,13.0,15.0,82,0.02,,,0.13,meteohub,2013-01-30 04:09:00,
2013-01-29 23:14:00,35.1,30.2,29.55,East,90,13.0,15.0,82,0.02,,,0.13,meteohub,2013-01-30 04:14:00,
2013-01-29 23:19:00,34.9,30.0,29.56,East,90,13.0,15.0,82,0.04,,,0.14,meteohub,2013-01-30 04:19:00,
2013-01-29 23:24:00,34.9,30.0,29.56,East,90,15.0,15.0,82,0.04,,,0.14,meteohub,2013-01-30 04:24:00,
2013-01-29 23:29:00,34.9,30.0,29.56,NE,45,13.0,15.0,82,0.02,,,0.14,meteohub,2013-01-30 04:29:00,
2013-01-29 23:34:00,34.9,30.0,29.55,East,90,12.0,15.0,82,0.02,,,0.14,meteohub,2013-01-30 04:34:00,
2013-01-29 23:39:00,34.7,29.8,29.56,East,90,17.0,17.0,82,0.02,,,0.15,meteohub,2013-01-30 04:39:00,
2013-01-29 23:44:00,34.7,29.8,29.55,East,90,13.0,17.0,82,0.02,,,0.15,meteohub,2013-01-30 04:44:00,
2013-01-29 23:49:00,34.7,29.8,29.55,East,90,11.0,17.0,82,0.02,,,0.15,meteohub,2013-01-30 04:49:00,
2013-01-29 23:54:00,34.5,29.7,29.55,East,90,17.0,20.0,82,0.04,,,0.17,meteohub,2013-01-30 04:54:00,
2013-01-29 23:59:00,34.5,29.7,29.55,East,90,15.0,20.0,82,0.05,,,0.18,meteohub,2013-01-30 04:59:00,